Terminal Aerodrome Forecast
Issued by NWS

Home | Current Version | Previous Version | Text Only | Print | Product List | Glossary On
Versions: 1 2 3 4 5 6 7 8 9 10 11 12 13 14 15 16 17 18 19 20 21 22 23 24 25 26 27 28 29 30 31 32 33 34
988
FTUS44 KEWX 281021 AAC
TAFSSF
TAF AMD
KSSF 281021Z 2810/0106 12006KT 5SM BR OVC015
      TEMPO 2810/2812 3SM BR OVC007
     FM281200 14005KT 1SM BR OVC004
     FM281800 18008KT P6SM OVC015
     FM282000 17010KT P6SM BKN040=

USA.gov is the U.S. government's official web portal to all federal, state and local government web resources and services.